Time;durP1;ratioP1;P1;durP2;ratioP2;P2;SDS_P1;SDS_P2;PMS_P1;PMS_P2;Temp;Humidity;BMP_temperature;BMP_pressure;BME280_temperature;BME280_humidity;BME280_pressure;Samples;Min_cycle;Max_cycle;Signal;HPM_P1;HPM_P2
2023/12/24 00:00:38;;;;;;;;;;;;;;;;;;4976140;28;20419;-67
2023/12/24 00:03:04;;;;;;;;;;;;;;;;;;4976441;28;20368;-67
2023/12/24 00:05:30;;;;;;;;;;;;;;;;;;4996986;28;20032;-67
2023/12/24 00:07:56;;;;;;;;;;;;;;;;;;4987598;28;20467;-67
2023/12/24 00:10:22;;;;;;;;;;;;;;;;;;4992476;28;20008;-68
2023/12/24 00:12:48;;;;;;;;;;;;;;;;;;4994519;28;19922;-67
2023/12/24 00:15:14;;;;;;;;;;;;;;;;;;4967671;28;19921;-67
2023/12/24 00:17:40;;;;;;;;;;;;;;;;;;4994586;28;19933;-66
2023/12/24 00:20:06;;;;;;;;;;;;;;;;;;4993271;28;20280;-68
2023/12/24 00:22:32;;;;;;;;;;;;;;;;;;4974843;28;19925;-68
2023/12/24 00:24:58;;;;;;;;;;;;;;;;;;4991942;28;19922;-68
2023/12/24 00:27:23;;;;;;;;;;;;;;;;;;4999163;28;19926;-67
2023/12/24 00:29:49;;;;;;;;;;;;;;;;;;4986269;28;19930;-68
2023/12/24 00:32:16;;;;;;;;;;;;;;;;;;4990086;28;20384;-67
2023/12/24 00:34:42;;;;;;;;;;;;;;;;;;4974729;28;19922;-68
2023/12/24 00:37:08;;;;;;;;;;;;;;;;;;4990803;28;19994;-68
2023/12/24 00:39:34;;;;;;;;;;;;;;;;;;4998461;28;19926;-67
2023/12/24 00:42:00;;;;;;;;;;;;;;;;;;4971584;28;20342;-67
2023/12/24 00:44:26;;;;;;;;;;;;;;;;;;4987609;28;20420;-68
2023/12/24 00:46:52;;;;;;;;;;;;;;;;;;4966234;28;20017;-67
2023/12/24 00:49:18;;;;;;;;;;;;;;;;;;4984033;28;20390;-68
2023/12/24 00:51:44;;;;;;;;;;;;;;;;;;4996223;28;19922;-67
2023/12/24 00:54:10;;;;;;;;;;;;;;;;;;4971480;28;19922;-67
2023/12/24 00:56:36;;;;;;;;;;;;;;;;;;4990449;28;19925;-68
2023/12/24 00:59:01;;;;;;;;;;;;;;;;;;4981786;28;19934;-67
2023/12/24 01:01:27;;;;;;;;;;;;;;;;;;4993203;28;20338;-67
2023/12/24 01:03:53;;;;;;;;;;;;;;;;;;4986614;28;20016;-68
2023/12/24 01:06:19;;;;;;;;;;;;;;;;;;4985723;28;19926;-67
2023/12/24 01:08:45;;;;;;;;;;;;;;;;;;4980142;28;19929;-67
2023/12/24 01:11:12;;;;;;;;;;;;;;;;;;4972325;28;20467;-66
2023/12/24 01:13:38;;;;;;;;;;;;;;;;;;4985853;28;19929;-67
2023/12/24 01:16:04;;;;;;;;;;;;;;;;;;4982142;28;19944;-67
2023/12/24 01:18:30;;;;;;;;;;;;;;;;;;4996525;28;19925;-67
2023/12/24 01:20:56;;;;;;;;;;;;;;;;;;4961856;28;19996;-68
2023/12/24 01:23:22;;;;;;;;;;;;;;;;;;4983623;28;20002;-68
2023/12/24 01:25:48;;;;;;;;;;;;;;;;;;4994161;28;20001;-68
2023/12/24 01:28:14;;;;;;;;;;;;;;;;;;4985766;28;20424;-68
2023/12/24 01:30:40;;;;;;;;;;;;;;;;;;4970078;28;19930;-67
2023/12/24 01:33:06;;;;;;;;;;;;;;;;;;4985827;28;20610;-68
2023/12/24 01:35:32;;;;;;;;;;;;;;;;;;4975791;28;19928;-68
2023/12/24 01:37:58;;;;;;;;;;;;;;;;;;4963304;28;19933;-67
2023/12/24 01:40:24;;;;;;;;;;;;;;;;;;4992728;28;20008;-67
2023/12/24 01:42:50;;;;;;;;;;;;;;;;;;4994749;28;19922;-67
2023/12/24 01:45:16;;;;;;;;;;;;;;;;;;4998018;28;20350;-68
2023/12/24 01:47:42;;;;;;;;;;;;;;;;;;4951523;28;19945;-67
2023/12/24 01:50:08;;;;;;;;;;;;;;;;;;4975921;28;19957;-67
2023/12/24 01:52:34;;;;;;;;;;;;;;;;;;4992874;28;19968;-67
2023/12/24 01:55:00;;;;;;;;;;;;;;;;;;4989062;28;20337;-67
2023/12/24 01:57:26;;;;;;;;;;;;;;;;;;4976732;28;19969;-67
2023/12/24 01:59:51;;;;;;;;;;;;;;;;;;4976695;28;20315;-67
2023/12/24 02:02:17;;;;;;;;;;;;;;;;;;4972105;28;20335;-67
2023/12/24 02:04:43;;;;;;;;;;;;;;;;;;4976816;28;20021;-68
2023/12/24 02:07:09;;;;;;;;;;;;;;;;;;4976627;28;20008;-67
2023/12/24 02:09:35;;;;;;;;;;;;;;;;;;4980377;28;19953;-68
2023/12/24 02:12:01;;;;;;;;;;;;;;;;;;4972946;28;19957;-68
2023/12/24 02:14:27;;;;;;;;;;;;;;;;;;4998340;28;19921;-67
2023/12/24 02:16:53;;;;;;;;;;;;;;;;;;4962893;28;19922;-67
2023/12/24 02:19:19;;;;;;;;;;;;;;;;;;4980019;28;20363;-67
2023/12/24 02:21:45;;;;;;;;;;;;;;;;;;4997784;28;19929;-67
2023/12/24 02:24:11;;;;;;;;;;;;;;;;;;4996478;28;19921;-69
2023/12/24 02:26:37;;;;;;;;;;;;;;;;;;4982882;28;19926;-68
2023/12/24 02:29:03;;;;;;;;;;;;;;;;;;4995554;28;20275;-68
2023/12/24 02:31:28;;;;;;;;;;;;;;;;;;4998580;28;19921;-67
2023/12/24 02:33:54;;;;;;;;;;;;;;;;;;4997259;28;20009;-67
2023/12/24 02:36:20;;;;;;;;;;;;;;;;;;4978977;28;20009;-68
2023/12/24 02:38:46;;;;;;;;;;;;;;;;;;4976421;28;20017;-68
2023/12/24 02:41:12;;;;;;;;;;;;;;;;;;4994338;28;19925;-68
2023/12/24 02:43:38;;;;;;;;;;;;;;;;;;4989803;28;19922;-67
2023/12/24 02:46:04;;;;;;;;;;;;;;;;;;4991986;28;20016;-68
2023/12/24 02:48:30;;;;;;;;;;;;;;;;;;5009441;28;19921;-68
2023/12/24 02:50:56;;;;;;;;;;;;;;;;;;4979753;28;19922;-67
2023/12/24 02:53:22;;;;;;;;;;;;;;;;;;4996677;28;19976;-67
2023/12/24 02:55:48;;;;;;;;;;;;;;;;;;5005725;28;19961;-67
2023/12/24 02:58:14;;;;;;;;;;;;;;;;;;4992587;28;19971;-68
2023/12/24 03:00:39;;;;;;;;;;;;;;;;;;4974579;28;19926;-67
2023/12/24 03:03:07;;;;;;;;;;;;;;;;;;4979718;28;19922;-67
2023/12/24 03:05:33;;;;;;;;;;;;;;;;;;4979812;28;19922;-67
2023/12/24 03:07:58;;;;;;;;;;;;;;;;;;4976533;28;19960;-67
2023/12/24 03:10:24;;;;;;;;;;;;;;;;;;4987768;28;19976;-67
2023/12/24 03:12:50;;;;;;;;;;;;;;;;;;4959619;28;19973;-68
2023/12/24 03:15:16;;;;;;;;;;;;;;;;;;4962464;28;19926;-67
2023/12/24 03:17:42;;;;;;;;;;;;;;;;;;4992357;28;19926;-67
2023/12/24 03:20:08;;;;;;;;;;;;;;;;;;4989867;28;19922;-67
2023/12/24 03:22:34;;;;;;;;;;;;;;;;;;4979430;28;20378;-68
2023/12/24 03:25:00;;;;;;;;;;;;;;;;;;4985162;28;19962;-68
2023/12/24 03:27:26;;;;;;;;;;;;;;;;;;4975413;28;19978;-68
2023/12/24 03:29:52;;;;;;;;;;;;;;;;;;4984548;28;19922;-67
2023/12/24 03:32:18;;;;;;;;;;;;;;;;;;4972118;28;19969;-67
2023/12/24 03:34:44;;;;;;;;;;;;;;;;;;4972675;28;19922;-67
2023/12/24 03:37:09;;;;;;;;;;;;;;;;;;4963813;28;19977;-67
2023/12/24 03:39:35;;;;;;;;;;;;;;;;;;4975014;28;20324;-67
2023/12/24 03:42:01;;;;;;;;;;;;;;;;;;4966695;28;19921;-68
2023/12/24 03:44:27;;;;;;;;;;;;;;;;;;4977255;28;19925;-66
2023/12/24 03:46:53;;;;;;;;;;;;;;;;;;4978945;28;19922;-68
2023/12/24 03:49:20;;;;;;;;;;;;;;;;;;4975803;28;19948;-68
2023/12/24 03:51:47;;;;;;;;;;;;;;;;;;4973337;28;19925;-67
2023/12/24 03:54:13;;;;;;;;;;;;;;;;;;4972609;28;19922;-68
2023/12/24 03:56:39;;;;;;;;;;;;;;;;;;4975683;28;19941;-68
2023/12/24 03:59:05;;;;;;;;;;;;;;;;;;4975786;28;19933;-68
2023/12/24 04:01:31;;;;;;;;;;;;;;;;;;4973468;28;19922;-67
2023/12/24 04:03:57;;;;;;;;;;;;;;;;;;4976572;28;19940;-67
2023/12/24 04:06:23;;;;;;;;;;;;;;;;;;4963430;28;19961;-67
2023/12/24 04:08:49;;;;;;;;;;;;;;;;;;4966799;28;20017;-67
2023/12/24 04:11:15;;;;;;;;;;;;;;;;;;4976553;28;20291;-67
2023/12/24 04:13:41;;;;;;;;;;;;;;;;;;4967057;28;19922;-67
2023/12/24 04:16:07;;;;;;;;;;;;;;;;;;4970383;28;19988;-67
2023/12/24 04:18:33;;;;;;;;;;;;;;;;;;4970223;28;19926;-67
2023/12/24 04:20:59;;;;;;;;;;;;;;;;;;4976852;28;19926;-67
2023/12/24 04:23:24;;;;;;;;;;;;;;;;;;4969474;28;19922;-68
2023/12/24 04:25:50;;;;;;;;;;;;;;;;;;4991325;28;20439;-67
2023/12/24 04:28:16;;;;;;;;;;;;;;;;;;4984020;28;20001;-67
2023/12/24 04:30:42;;;;;;;;;;;;;;;;;;4973501;28;19969;-67
2023/12/24 04:33:08;;;;;;;;;;;;;;;;;;4974860;28;19997;-68
2023/12/24 04:35:34;;;;;;;;;;;;;;;;;;4974993;28;20313;-68
2023/12/24 04:38:00;;;;;;;;;;;;;;;;;;4974578;28;20392;-67
2023/12/24 04:40:26;;;;;;;;;;;;;;;;;;4973378;28;20016;-68
2023/12/24 04:42:52;;;;;;;;;;;;;;;;;;4975917;28;19944;-67
2023/12/24 04:45:18;;;;;;;;;;;;;;;;;;4976422;28;20319;-67
2023/12/24 04:47:44;;;;;;;;;;;;;;;;;;4966626;28;20009;-66
2023/12/24 04:50:10;;;;;;;;;;;;;;;;;;4968718;28;20338;-67
2023/12/24 04:52:37;;;;;;;;;;;;;;;;;;4974322;28;19922;-67
2023/12/24 04:55:04;;;;;;;;;;;;;;;;;;4958093;28;20059;-66
2023/12/24 04:57:30;;;;;;;;;;;;;;;;;;4956812;28;19922;-67
2023/12/24 04:59:56;;;;;;;;;;;;;;;;;;4974604;28;19973;-67
2023/12/24 05:02:21;;;;;;;;;;;;;;;;;;4972869;28;19926;-66
2023/12/24 05:04:47;;;;;;;;;;;;;;;;;;4973747;28;20376;-68
2023/12/24 05:07:13;;;;;;;;;;;;;;;;;;4975620;28;19949;-69
2023/12/24 05:09:39;;;;;;;;;;;;;;;;;;4971208;28;19926;-68
2023/12/24 05:12:05;;;;;;;;;;;;;;;;;;4975710;28;19922;-67
2023/12/24 05:14:31;;;;;;;;;;;;;;;;;;4975080;28;19969;-68
2023/12/24 05:16:57;;;;;;;;;;;;;;;;;;4974106;28;19922;-68
2023/12/24 05:19:23;;;;;;;;;;;;;;;;;;4973283;28;19981;-67
2023/12/24 05:21:49;;;;;;;;;;;;;;;;;;4964731;28;19973;-68
2023/12/24 05:24:15;;;;;;;;;;;;;;;;;;4969217;28;20276;-67
2023/12/24 05:26:41;;;;;;;;;;;;;;;;;;4987212;28;19933;-68
2023/12/24 05:29:07;;;;;;;;;;;;;;;;;;4975962;28;19929;-68
2023/12/24 05:31:33;;;;;;;;;;;;;;;;;;4985977;28;19922;-67
2023/12/24 05:33:59;;;;;;;;;;;;;;;;;;4977302;28;20414;-67
2023/12/24 05:36:25;;;;;;;;;;;;;;;;;;4977009;28;19928;-66
2023/12/24 05:38:51;;;;;;;;;;;;;;;;;;4977143;28;20340;-67
2023/12/24 05:41:17;;;;;;;;;;;;;;;;;;4974785;28;19921;-67
2023/12/24 05:43:43;;;;;;;;;;;;;;;;;;4960145;28;20292;-67
2023/12/24 05:46:08;;;;;;;;;;;;;;;;;;4968320;28;19926;-68
2023/12/24 05:48:34;;;;;;;;;;;;;;;;;;4993960;28;20415;-68
2023/12/24 05:51:01;;;;;;;;;;;;;;;;;;4994431;28;19929;-67
2023/12/24 05:53:27;;;;;;;;;;;;;;;;;;4964146;28;19926;-68
2023/12/24 05:55:53;;;;;;;;;;;;;;;;;;4994211;28;19928;-67
2023/12/24 05:58:20;;;;;;;;;;;;;;;;;;5004581;28;19930;-68
2023/12/24 06:00:46;;;;;;;;;;;;;;;;;;4994200;28;19922;-68
2023/12/24 06:03:12;;;;;;;;;;;;;;;;;;4973551;28;20451;-67
2023/12/24 06:05:38;;;;;;;;;;;;;;;;;;4976548;28;19984;-67
2023/12/24 06:08:03;;;;;;;;;;;;;;;;;;4976777;28;20364;-66
2023/12/24 06:10:29;;;;;;;;;;;;;;;;;;4968507;28;19933;-68
2023/12/24 06:12:55;;;;;;;;;;;;;;;;;;4982727;28;19972;-68
2023/12/24 06:15:21;;;;;;;;;;;;;;;;;;4976246;28;19922;-68
2023/12/24 06:17:48;;;;;;;;;;;;;;;;;;4992731;28;20376;-67
2023/12/24 06:20:13;;;;;;;;;;;;;;;;;;4989752;28;20005;-67
2023/12/24 06:22:39;;;;;;;;;;;;;;;;;;4993218;28;20431;-67
2023/12/24 06:25:05;;;;;;;;;;;;;;;;;;4988924;28;20020;-67
2023/12/24 06:27:31;;;;;;;;;;;;;;;;;;4975671;28;20021;-67
2023/12/24 06:29:57;;;;;;;;;;;;;;;;;;4975242;28;20008;-67
2023/12/24 06:32:23;;;;;;;;;;;;;;;;;;4975253;28;20459;-67
2023/12/24 06:34:49;;;;;;;;;;;;;;;;;;4976320;28;20016;-68
2023/12/24 06:37:15;;;;;;;;;;;;;;;;;;4975421;28;19930;-67
2023/12/24 06:39:41;;;;;;;;;;;;;;;;;;4991752;28;19926;-67
2023/12/24 06:42:07;;;;;;;;;;;;;;;;;;4991648;28;19948;-67
2023/12/24 06:44:33;;;;;;;;;;;;;;;;;;4990078;28;20020;-66
2023/12/24 06:46:59;;;;;;;;;;;;;;;;;;4988703;28;19972;-67
2023/12/24 06:49:25;;;;;;;;;;;;;;;;;;4990878;28;19929;-67
2023/12/24 06:51:51;;;;;;;;;;;;;;;;;;4988294;28;19922;-67
2023/12/24 06:54:17;;;;;;;;;;;;;;;;;;4992479;28;19922;-67
2023/12/24 06:56:42;;;;;;;;;;;;;;;;;;4975003;28;19922;-67
2023/12/24 06:59:09;;;;;;;;;;;;;;;;;;4986550;28;19926;-66
2023/12/24 07:01:34;;;;;;;;;;;;;;;;;;4989457;28;19932;-66
2023/12/24 07:04:00;;;;;;;;;;;;;;;;;;4977468;28;20275;-67
2023/12/24 07:06:26;;;;;;;;;;;;;;;;;;4976319;28;19921;-67
2023/12/24 07:08:52;;;;;;;;;;;;;;;;;;4992557;28;19922;-68
2023/12/24 07:11:18;;;;;;;;;;;;;;;;;;4992551;28;20009;-67
2023/12/24 07:13:44;;;;;;;;;;;;;;;;;;4961554;28;19925;-68
2023/12/24 07:16:10;;;;;;;;;;;;;;;;;;4957327;28;19928;-66
2023/12/24 07:18:36;;;;;;;;;;;;;;;;;;4992331;28;20241;-67
2023/12/24 07:21:02;;;;;;;;;;;;;;;;;;4986910;28;19926;-67
2023/12/24 07:23:28;;;;;;;;;;;;;;;;;;4969526;28;19921;-67
2023/12/24 07:25:54;;;;;;;;;;;;;;;;;;4994672;28;19932;-67
2023/12/24 07:28:20;;;;;;;;;;;;;;;;;;4977092;28;19926;-67
2023/12/24 07:30:46;;;;;;;;;;;;;;;;;;4975982;28;20438;-65
2023/12/24 07:33:12;;;;;;;;;;;;;;;;;;4990668;28;19922;-67
2023/12/24 07:35:39;;;;;;;;;;;;;;;;;;4976167;28;19929;-67
2023/12/24 07:38:05;;;;;;;;;;;;;;;;;;4989080;28;19938;-67
2023/12/24 07:40:31;;;;;;;;;;;;;;;;;;5002881;23;19937;-63
2023/12/24 07:42:59;;;;;;;;;;;;;;;;;;5000967;28;19929;-63
2023/12/24 07:45:25;;;;;;;;;;;;;;;;;;4987051;28;20665;-63
2023/12/24 07:47:51;;;;;;;;;;;;;;;;;;5006869;28;19925;-62
2023/12/24 07:50:17;;;;;;;;;;;;;;;;;;5007237;28;19968;-63
2023/12/24 07:52:42;;;;;;;;;;;;;;;;;;5007919;28;19964;-63
2023/12/24 07:55:08;;;;;;;;;;;;;;;;;;5005138;28;20638;-63
2023/12/24 07:57:34;;;;;;;;;;;;;;;;;;5000564;28;19930;-64
2023/12/24 08:00:00;;;;;;;;;;;;;;;;;;4983829;28;19929;-64
2023/12/24 08:02:26;;;;;;;;;;;;;;;;;;5004964;28;19967;-64
2023/12/24 08:04:55;;;;;;;;;;;;;;;;;;5006395;28;20036;-64
2023/12/24 08:07:21;;;;;;;;;;;;;;;;;;5003416;28;19960;-63
2023/12/24 08:09:47;;;;;;;;;;;;;;;;;;5004206;28;19921;-63
2023/12/24 08:12:14;;;;;;;;;;;;;;;;;;5005408;28;19951;-63
2023/12/24 08:14:39;;;;;;;;;;;;;;;;;;4989031;28;19925;-63
2023/12/24 08:17:05;;;;;;;;;;;;;;;;;;5001670;28;20574;-63
2023/12/24 08:19:31;;;;;;;;;;;;;;;;;;4988464;28;19949;-63
2023/12/24 08:21:57;;;;;;;;;;;;;;;;;;5009480;28;19933;-63
2023/12/24 08:24:23;;;;;;;;;;;;;;;;;;4990515;28;19926;-63
2023/12/24 08:26:49;;;;;;;;;;;;;;;;;;4990122;28;19927;-63
2023/12/24 08:29:15;;;;;;;;;;;;;;;;;;5007858;28;20407;-63
2023/12/24 08:31:41;;;;;;;;;;;;;;;;;;5005433;28;19995;-63
2023/12/24 08:34:07;;;;;;;;;;;;;;;;;;5005799;28;19925;-63
2023/12/24 08:36:33;;;;;;;;;;;;;;;;;;5010820;28;19922;-63
2023/12/24 08:38:59;;;;;;;;;;;;;;;;;;4987761;28;19921;-63
2023/12/24 08:41:25;;;;;;;;;;;;;;;;;;5008547;28;19930;-63
2023/12/24 08:43:51;;;;;;;;;;;;;;;;;;4997173;28;21272;-63
2023/12/24 08:46:17;;;;;;;;;;;;;;;;;;4986767;28;19928;-63
2023/12/24 08:48:43;;;;;;;;;;;;;;;;;;5007699;28;20638;-63
2023/12/24 08:51:09;;;;;;;;;;;;;;;;;;5006794;28;19929;-63
2023/12/24 08:53:35;;;;;;;;;;;;;;;;;;5009844;28;20276;-63
2023/12/24 08:56:01;;;;;;;;;;;;;;;;;;5004652;28;19956;-63
2023/12/24 08:58:27;;;;;;;;;;;;;;;;;;5009009;28;19929;-64
2023/12/24 09:00:53;;;;;;;;;;;;;;;;;;5010613;28;19929;-63
2023/12/24 09:03:19;;;;;;;;;;;;;;;;;;5005418;28;20327;-63
2023/12/24 09:05:45;;;;;;;;;;;;;;;;;;4999540;28;19932;-63
2023/12/24 09:08:11;;;;;;;;;;;;;;;;;;5009035;28;19925;-63
2023/12/24 09:10:37;;;;;;;;;;;;;;;;;;5004429;28;19921;-63
2023/12/24 09:13:03;;;;;;;;;;;;;;;;;;5009681;28;20393;-63
2023/12/24 09:15:29;;;;;;;;;;;;;;;;;;5009685;28;19926;-63
2023/12/24 09:17:55;;;;;;;;;;;;;;;;;;4982672;28;19940;-63
2023/12/24 09:20:21;;;;;;;;;;;;;;;;;;5004911;28;20614;-63
2023/12/24 09:22:47;;;;;;;;;;;;;;;;;;5004443;28;19922;-64
2023/12/24 09:25:13;;;;;;;;;;;;;;;;;;5009419;28;19952;-64
2023/12/24 09:27:39;;;;;;;;;;;;;;;;;;5005837;28;19968;-64
2023/12/24 09:30:05;;;;;;;;;;;;;;;;;;4977549;28;19925;-64
2023/12/24 09:32:31;;;;;;;;;;;;;;;;;;5002451;28;20016;-63
2023/12/24 09:34:57;;;;;;;;;;;;;;;;;;5003411;28;19937;-63
2023/12/24 09:37:23;;;;;;;;;;;;;;;;;;5003265;28;19968;-63
2023/12/24 09:39:49;;;;;;;;;;;;;;;;;;5000410;28;19925;-64
2023/12/24 09:42:15;;;;;;;;;;;;;;;;;;5000395;28;19941;-63
2023/12/24 09:44:43;;;;;;;;;;;;;;;;;;4997741;28;20420;-64
2023/12/24 09:47:08;;;;;;;;;;;;;;;;;;5003160;28;19965;-64
2023/12/24 09:49:34;;;;;;;;;;;;;;;;;;5000282;28;20383;-63
2023/12/24 09:52:00;;;;;;;;;;;;;;;;;;4992088;28;20049;-64
2023/12/24 09:54:26;;;;;;;;;;;;;;;;;;4998519;28;19928;-63
2023/12/24 09:56:52;;;;;;;;;;;;;;;;;;4983783;28;19933;-65
2023/12/24 09:59:18;;;;;;;;;;;;;;;;;;5003879;28;20616;-64
2023/12/24 10:01:44;;;;;;;;;;;;;;;;;;4999550;28;20013;-64
2023/12/24 10:04:10;;;;;;;;;;;;;;;;;;5004449;28;19928;-64
2023/12/24 10:06:36;;;;;;;;;;;;;;;;;;4988689;28;20012;-63
2023/12/24 10:09:02;;;;;;;;;;;;;;;;;;5007177;28;21859;-64
2023/12/24 10:11:35;;;;;;;;;;;;;;;;;;5008195;28;19932;-64
2023/12/24 10:14:02;;;;;;;;;;;;;;;;;;4999006;28;19930;-63
2023/12/24 10:16:29;;;;;;;;;;;;;;;;;;5007731;28;20271;-63
2023/12/24 10:18:55;;;;;;;;;;;;;;;;;;5002201;28;20323;-63
2023/12/24 10:21:21;;;;;;;;;;;;;;;;;;5002086;28;19922;-63
2023/12/24 10:23:47;;;;;;;;;;;;;;;;;;4987360;28;19963;-63
2023/12/24 10:26:13;;;;;;;;;;;;;;;;;;5004122;28;19921;-64
2023/12/24 10:28:39;;;;;;;;;;;;;;;;;;5008316;28;19929;-64
2023/12/24 10:31:05;;;;;;;;;;;;;;;;;;5006885;28;19926;-63
2023/12/24 10:33:31;;;;;;;;;;;;;;;;;;5005147;28;19929;-64
2023/12/24 10:35:57;;;;;;;;;;;;;;;;;;5010415;28;19931;-63
2023/12/24 10:38:23;;;;;;;;;;;;;;;;;;5010736;28;20058;-67
2023/12/24 10:40:49;;;;;;;;;;;;;;;;;;5008225;28;19936;-63
2023/12/24 10:43:15;;;;;;;;;;;;;;;;;;4992012;28;20298;-63
2023/12/24 10:45:41;;;;;;;;;;;;;;;;;;4987111;28;20283;-63
2023/12/24 10:48:07;;;;;;;;;;;;;;;;;;5000143;28;19929;-63
2023/12/24 10:50:33;;;;;;;;;;;;;;;;;;5004135;28;19925;-63
2023/12/24 10:52:59;;;;;;;;;;;;;;;;;;5003706;28;19922;-64
2023/12/24 10:55:25;;;;;;;;;;;;;;;;;;5007675;28;19971;-63
2023/12/24 10:57:51;;;;;;;;;;;;;;;;;;5005015;28;19925;-64
2023/12/24 11:00:17;;;;;;;;;;;;;;;;;;5006458;28;19921;-63
2023/12/24 11:02:43;;;;;;;;;;;;;;;;;;5001662;28;20496;-63
2023/12/24 11:05:09;;;;;;;;;;;;;;;;;;5006896;28;19979;-63
2023/12/24 11:07:35;;;;;;;;;;;;;;;;;;5005819;28;20279;-63
2023/12/24 11:10:01;;;;;;;;;;;;;;;;;;5008845;28;20418;-64
2023/12/24 11:12:27;;;;;;;;;;;;;;;;;;5002672;28;20354;-64
2023/12/24 11:14:53;;;;;;;;;;;;;;;;;;5007988;28;19980;-63
2023/12/24 11:17:19;;;;;;;;;;;;;;;;;;5000508;28;19929;-64
2023/12/24 11:19:45;;;;;;;;;;;;;;;;;;5007851;28;20346;-64
2023/12/24 11:22:11;;;;;;;;;;;;;;;;;;5004769;28;19968;-63
2023/12/24 11:24:41;;;;;;;;;;;;;;;;;;5005480;28;19965;-63
2023/12/24 11:27:08;;;;;;;;;;;;;;;;;;5009930;28;19928;-65
2023/12/24 11:29:34;;;;;;;;;;;;;;;;;;5004289;28;19925;-65
2023/12/24 11:32:00;;;;;;;;;;;;;;;;;;4999170;28;20355;-64
2023/12/24 11:34:25;;;;;;;;;;;;;;;;;;5005331;28;19929;-64
2023/12/24 11:36:51;;;;;;;;;;;;;;;;;;4998639;28;19930;-65
2023/12/24 11:39:17;;;;;;;;;;;;;;;;;;5006026;28;19930;-65
2023/12/24 11:41:43;;;;;;;;;;;;;;;;;;5006509;28;19925;-65
2023/12/24 11:44:10;;;;;;;;;;;;;;;;;;4993452;28;20465;-65
2023/12/24 11:46:36;;;;;;;;;;;;;;;;;;4998763;28;19957;-65
2023/12/24 11:49:02;;;;;;;;;;;;;;;;;;5008156;28;19928;-65
2023/12/24 11:51:31;;;;;;;;;;;;;;;;;;5011130;28;19932;-65
2023/12/24 11:53:57;;;;;;;;;;;;;;;;;;4998976;28;20449;-65
2023/12/24 11:56:23;;;;;;;;;;;;;;;;;;4999635;28;19987;-65
2023/12/24 11:58:49;;;;;;;;;;;;;;;;;;5006907;28;20027;-65
2023/12/24 12:01:15;;;;;;;;;;;;;;;;;;5002895;28;20025;-64
2023/12/24 12:03:41;;;;;;;;;;;;;;;;;;4987305;28;20384;-66
2023/12/24 12:06:07;;;;;;;;;;;;;;;;;;4997873;28;20272;-65
2023/12/24 12:08:32;;;;;;;;;;;;;;;;;;4980415;28;20414;-65
2023/12/24 12:10:58;;;;;;;;;;;;;;;;;;5007605;28;20473;-65
2023/12/24 12:13:24;;;;;;;;;;;;;;;;;;5009534;28;19929;-65
2023/12/24 12:15:50;;;;;;;;;;;;;;;;;;5006839;28;20323;-65
2023/12/24 12:18:17;;;;;;;;;;;;;;;;;;5008075;28;19945;-65
2023/12/24 12:20:42;;;;;;;;;;;;;;;;;;5007111;28;19925;-64
2023/12/24 12:23:09;;;;;;;;;;;;;;;;;;5004329;28;19929;-65
2023/12/24 12:25:35;;;;;;;;;;;;;;;;;;4991633;28;20352;-65
2023/12/24 12:28:01;;;;;;;;;;;;;;;;;;4986734;28;19948;-65
2023/12/24 12:30:27;;;;;;;;;;;;;;;;;;4983482;28;20048;-65
2023/12/24 12:32:53;;;;;;;;;;;;;;;;;;4984514;28;20383;-65
2023/12/24 12:35:19;;;;;;;;;;;;;;;;;;4993340;28;19921;-65
2023/12/24 12:37:46;;;;;;;;;;;;;;;;;;4998137;28;19932;-66
2023/12/24 12:40:11;;;;;;;;;;;;;;;;;;5003543;28;19922;-65
2023/12/24 12:42:37;;;;;;;;;;;;;;;;;;5000192;28;20642;-65
2023/12/24 12:45:03;;;;;;;;;;;;;;;;;;4997979;28;19926;-65
2023/12/24 12:47:29;;;;;;;;;;;;;;;;;;4996737;28;19926;-65
2023/12/24 12:49:55;;;;;;;;;;;;;;;;;;4981103;28;19933;-65
2023/12/24 12:52:21;;;;;;;;;;;;;;;;;;4983257;28;19921;-65
2023/12/24 12:54:47;;;;;;;;;;;;;;;;;;5004030;28;20412;-65
2023/12/24 12:57:13;;;;;;;;;;;;;;;;;;4996567;28;19945;-65
2023/12/24 12:59:39;;;;;;;;;;;;;;;;;;5009125;28;19976;-65
2023/12/24 13:02:05;;;;;;;;;;;;;;;;;;4976671;28;20015;-65
2023/12/24 13:04:34;;;;;;;;;;;;;;;;;;5001715;28;20463;-65
2023/12/24 13:07:02;;;;;;;;;;;;;;;;;;5002654;28;19922;-65
2023/12/24 13:09:31;;;;;;;;;;;;;;;;;;4996361;28;19983;-65
2023/12/24 13:11:57;;;;;;;;;;;;;;;;;;4994534;28;19922;-66
2023/12/24 13:14:23;;;;;;;;;;;;;;;;;;5009107;28;19933;-65
2023/12/24 13:16:49;;;;;;;;;;;;;;;;;;5006621;28;19929;-65
2023/12/24 13:19:15;;;;;;;;;;;;;;;;;;4989480;28;20643;-65
2023/12/24 13:21:41;;;;;;;;;;;;;;;;;;5004160;28;20509;-65
2023/12/24 13:24:07;;;;;;;;;;;;;;;;;;5009737;28;20420;-65
2023/12/24 13:26:34;;;;;;;;;;;;;;;;;;5000154;28;19921;-66
2023/12/24 13:29:00;;;;;;;;;;;;;;;;;;4990864;28;19929;-66
2023/12/24 13:31:26;;;;;;;;;;;;;;;;;;4982959;28;19921;-65
2023/12/24 13:33:54;;;;;;;;;;;;;;;;;;5003409;28;19922;-65
2023/12/24 13:36:20;;;;;;;;;;;;;;;;;;4998732;28;19929;-65
2023/12/24 13:38:46;;;;;;;;;;;;;;;;;;5003760;28;19925;-67
2023/12/24 13:41:12;;;;;;;;;;;;;;;;;;4980952;28;19929;-66
2023/12/24 13:43:39;;;;;;;;;;;;;;;;;;4985983;28;20372;-64
2023/12/24 13:46:06;;;;;;;;;;;;;;;;;;4991396;28;19961;-65
2023/12/24 13:48:32;;;;;;;;;;;;;;;;;;4980842;28;19921;-65
2023/12/24 13:50:58;;;;;;;;;;;;;;;;;;4975992;28;19922;-64
2023/12/24 13:53:23;;;;;;;;;;;;;;;;;;4999496;28;20317;-65
2023/12/24 13:55:49;;;;;;;;;;;;;;;;;;5002722;28;19930;-65
2023/12/24 13:58:15;;;;;;;;;;;;;;;;;;4998009;28;19933;-63
2023/12/24 14:00:41;;;;;;;;;;;;;;;;;;5002811;28;20240;-64
2023/12/24 14:03:07;;;;;;;;;;;;;;;;;;4998424;28;19929;-64
2023/12/24 14:05:33;;;;;;;;;;;;;;;;;;4983952;28;19927;-64
2023/12/24 14:07:59;;;;;;;;;;;;;;;;;;5009227;28;19929;-64
2023/12/24 14:10:25;;;;;;;;;;;;;;;;;;5000614;28;19926;-64
2023/12/24 14:12:53;;;;;;;;;;;;;;;;;;4999692;28;19971;-63
2023/12/24 14:15:19;;;;;;;;;;;;;;;;;;5005344;28;20328;-64
2023/12/24 14:17:45;;;;;;;;;;;;;;;;;;5006833;28;20023;-64
2023/12/24 14:20:13;;;;;;;;;;;;;;;;;;5007090;28;19937;-64
2023/12/24 14:22:39;;;;;;;;;;;;;;;;;;5011587;28;19925;-64
2023/12/24 14:25:08;;;;;;;;;;;;;;;;;;5003640;28;20038;-64
2023/12/24 14:27:34;;;;;;;;;;;;;;;;;;5002919;28;19926;-64
2023/12/24 14:30:00;;;;;;;;;;;;;;;;;;5004357;28;19921;-64
2023/12/24 14:32:26;;;;;;;;;;;;;;;;;;4982242;28;19964;-64
2023/12/24 14:34:53;;;;;;;;;;;;;;;;;;5002016;28;19930;-64
2023/12/24 14:37:18;;;;;;;;;;;;;;;;;;5004567;28;19925;-65
2023/12/24 14:39:44;;;;;;;;;;;;;;;;;;4990669;28;20337;-64
2023/12/24 14:42:10;;;;;;;;;;;;;;;;;;5001223;28;19988;-64
2023/12/24 14:44:36;;;;;;;;;;;;;;;;;;5008839;28;19925;-64
2023/12/24 14:47:02;;;;;;;;;;;;;;;;;;5001134;28;19928;-64
2023/12/24 14:49:31;;;;;;;;;;;;;;;;;;5002570;28;20375;-64
2023/12/24 14:51:57;;;;;;;;;;;;;;;;;;4973229;28;19972;-64
2023/12/24 14:54:23;;;;;;;;;;;;;;;;;;4983085;28;20457;-65
2023/12/24 14:56:49;;;;;;;;;;;;;;;;;;4996195;28;19922;-64
2023/12/24 14:59:15;;;;;;;;;;;;;;;;;;5005570;28;19991;-64
2023/12/24 15:01:41;;;;;;;;;;;;;;;;;;4989107;28;20040;-64
2023/12/24 15:04:07;;;;;;;;;;;;;;;;;;5002869;28;20003;-64
2023/12/24 15:06:33;;;;;;;;;;;;;;;;;;5000739;28;19961;-64
2023/12/24 15:08:59;;;;;;;;;;;;;;;;;;4987084;28;19922;-64
2023/12/24 15:11:25;;;;;;;;;;;;;;;;;;5004665;28;19996;-64
2023/12/24 15:13:52;;;;;;;;;;;;;;;;;;4982163;28;20395;-64
2023/12/24 15:16:18;;;;;;;;;;;;;;;;;;5002289;28;20389;-64
2023/12/24 15:18:45;;;;;;;;;;;;;;;;;;4999852;28;19929;-64
2023/12/24 15:21:11;;;;;;;;;;;;;;;;;;4994952;28;19926;-64
2023/12/24 15:23:37;;;;;;;;;;;;;;;;;;5002582;28;19980;-64
2023/12/24 15:26:03;;;;;;;;;;;;;;;;;;5007631;28;19925;-65
2023/12/24 15:28:29;;;;;;;;;;;;;;;;;;4998126;28;19929;-64
2023/12/24 15:30:55;;;;;;;;;;;;;;;;;;4985031;28;20338;-64
2023/12/24 15:33:21;;;;;;;;;;;;;;;;;;5004620;28;19925;-64
2023/12/24 15:35:47;;;;;;;;;;;;;;;;;;5002032;28;19933;-65
2023/12/24 15:38:13;;;;;;;;;;;;;;;;;;4993710;28;19929;-65
2023/12/24 15:40:39;;;;;;;;;;;;;;;;;;4983572;28;19929;-64
2023/12/24 15:43:05;;;;;;;;;;;;;;;;;;5006485;28;19925;-64
2023/12/24 15:45:31;;;;;;;;;;;;;;;;;;5001674;28;19945;-64
2023/12/24 15:47:57;;;;;;;;;;;;;;;;;;5006599;28;19921;-64
2023/12/24 15:50:23;;;;;;;;;;;;;;;;;;4997815;28;19926;-64
2023/12/24 15:52:49;;;;;;;;;;;;;;;;;;4997687;28;20482;-64
2023/12/24 15:55:15;;;;;;;;;;;;;;;;;;5007511;28;19925;-64
2023/12/24 15:57:41;;;;;;;;;;;;;;;;;;5003455;28;20051;-64
2023/12/24 16:00:08;;;;;;;;;;;;;;;;;;5004441;28;19929;-66
2023/12/24 16:02:38;;;;;;;;;;;;;;;;;;4986108;28;20295;-66
2023/12/24 16:05:04;;;;;;;;;;;;;;;;;;5005268;28;20643;-65
2023/12/24 16:07:30;;;;;;;;;;;;;;;;;;4981381;28;19930;-65
2023/12/24 16:09:56;;;;;;;;;;;;;;;;;;4997867;28;19932;-65
2023/12/24 16:12:21;;;;;;;;;;;;;;;;;;5004392;28;19926;-65
2023/12/24 16:14:47;;;;;;;;;;;;;;;;;;5009652;28;19925;-65
2023/12/24 16:17:13;;;;;;;;;;;;;;;;;;4988801;28;20406;-65
2023/12/24 16:19:39;;;;;;;;;;;;;;;;;;4998708;28;19937;-64
2023/12/24 16:22:05;;;;;;;;;;;;;;;;;;5001937;28;19926;-65
2023/12/24 16:24:31;;;;;;;;;;;;;;;;;;5004269;28;19922;-65
2023/12/24 16:26:57;;;;;;;;;;;;;;;;;;5001127;28;19965;-64
2023/12/24 16:29:23;;;;;;;;;;;;;;;;;;4996926;28;20082;-64
2023/12/24 16:31:49;;;;;;;;;;;;;;;;;;5001509;28;19926;-65
2023/12/24 16:34:15;;;;;;;;;;;;;;;;;;5002829;28;19929;-65
2023/12/24 16:36:41;;;;;;;;;;;;;;;;;;4998238;28;19921;-65